createdAt,value
2022-12-13T00:00:21.741Z,83.51
2022-12-13T00:04:09.552Z,83.59
2022-12-13T00:07:36.558Z,83.47
2022-12-13T00:11:04.241Z,83.51
2022-12-13T00:14:32.747Z,83.49
2022-12-13T00:17:59.816Z,83.48
2022-12-13T00:21:29.298Z,83.27
2022-12-13T00:24:56.604Z,83.38
2022-12-13T00:28:23.895Z,83.47
2022-12-13T00:31:59.448Z,83.65
2022-12-13T00:35:27.348Z,83.82
2022-12-13T00:39:01.707Z,84.00
2022-12-13T00:42:28.456Z,83.98
2022-12-13T00:45:56.100Z,84.03
2022-12-13T00:49:22.937Z,84.36
2022-12-13T00:52:49.594Z,84.39
2022-12-13T00:56:19.636Z,84.46
2022-12-13T00:59:46.362Z,84.65
2022-12-13T01:03:21.507Z,84.48
2022-12-13T01:06:51.636Z,84.19
2022-12-13T01:10:18.653Z,84.22
2022-12-13T01:13:45.462Z,84.12
2022-12-13T01:17:12.610Z,84.10
2022-12-13T01:20:39.604Z,84.15
2022-12-13T01:24:08.248Z,84.17
2022-12-13T01:27:35.099Z,84.06
2022-12-13T01:31:03.575Z,84.17
2022-12-13T01:34:30.472Z,84.11
2022-12-13T01:37:58.265Z,84.10
2022-12-13T01:41:27.206Z,83.97
2022-12-13T01:45:06.296Z,84.05
2022-12-13T01:48:39.401Z,83.84
2022-12-13T01:52:10.446Z,84.14
2022-12-13T01:55:41.273Z,84.19
2022-12-13T01:59:11.799Z,84.17
2022-12-13T02:02:40.944Z,84.19
2022-12-13T02:06:12.916Z,84.47
2022-12-13T02:09:40.071Z,84.59
2022-12-13T02:13:06.903Z,84.47
2022-12-13T02:16:48.056Z,84.38
2022-12-13T02:20:40.004Z,84.60
2022-12-13T02:24:41.969Z,84.16
2022-12-13T02:28:31.325Z,84.32
2022-12-13T02:32:06.322Z,84.25
2022-12-13T02:35:41.787Z,84.45
2022-12-13T02:39:15.374Z,84.32
2022-12-13T02:42:49.090Z,84.25
2022-12-13T02:46:18.593Z,84.33
2022-12-13T02:49:47.041Z,84.21
2022-12-13T02:53:16.877Z,84.10
2022-12-13T02:56:43.566Z,84.21
2022-12-13T03:00:14.517Z,84.25
2022-12-13T03:03:48.727Z,84.39
2022-12-13T03:07:20.887Z,84.62
2022-12-13T03:10:54.468Z,84.46
2022-12-13T03:14:23.726Z,84.36
2022-12-13T03:17:55.667Z,84.26
2022-12-13T03:21:22.411Z,84.06
2022-12-13T03:24:49.822Z,84.11
2022-12-13T03:28:16.726Z,83.97
2022-12-13T03:31:43.678Z,83.88
2022-12-13T03:35:22.075Z,83.86
2022-12-13T03:38:52.238Z,83.89
2022-12-13T03:42:19.346Z,83.56
2022-12-13T03:45:46.783Z,83.34
2022-12-13T03:49:17.121Z,83.29
2022-12-13T03:52:44.963Z,83.32
2022-12-13T03:56:12.632Z,83.48
2022-12-13T03:59:39.386Z,83.13
2022-12-13T04:03:06.595Z,82.96
2022-12-13T04:06:33.607Z,83.21
2022-12-13T04:10:00.350Z,83.07
2022-12-13T04:13:35.997Z,83.10
2022-12-13T04:17:02.660Z,83.09
2022-12-13T04:20:29.529Z,82.94
2022-12-13T04:23:56.107Z,82.65
2022-12-13T04:27:27.798Z,82.63
2022-12-13T04:30:54.814Z,82.87
2022-12-13T04:34:21.901Z,82.96
2022-12-13T04:37:48.569Z,82.91
2022-12-13T04:41:20.406Z,82.82
2022-12-13T04:44:47.000Z,83.03
2022-12-13T04:48:13.943Z,82.96
2022-12-13T04:52:01.247Z,82.70
2022-12-13T04:55:29.053Z,82.69
2022-12-13T04:58:57.393Z,82.56
2022-12-13T05:02:24.472Z,82.72
2022-12-13T05:06:31.238Z,82.84
2022-12-13T05:09:57.903Z,82.55
2022-12-13T05:13:24.448Z,82.55
2022-12-13T05:16:51.153Z,82.50
2022-12-13T05:20:18.219Z,82.45
2022-12-13T05:23:44.862Z,82.64
2022-12-13T05:27:25.612Z,82.57
2022-12-13T05:30:53.924Z,82.47
2022-12-13T05:34:21.250Z,82.60
2022-12-13T05:37:48.069Z,82.66
2022-12-13T05:41:24.691Z,82.49
2022-12-13T05:44:49.816Z,82.76
2022-12-13T05:48:24.521Z,82.44
2022-12-13T05:51:51.736Z,82.37
2022-12-13T05:55:19.112Z,82.47
2022-12-13T05:58:45.880Z,82.38
2022-12-13T06:02:15.599Z,82.36
2022-12-13T06:05:46.787Z,82.26
2022-12-13T06:09:13.585Z,82.39
2022-12-13T06:12:43.131Z,82.19
2022-12-13T06:16:22.907Z,82.06
2022-12-13T06:19:51.060Z,82.16
2022-12-13T06:23:17.797Z,81.74
2022-12-13T06:26:44.990Z,82.11
2022-12-13T06:30:14.544Z,81.96
2022-12-13T06:33:41.117Z,81.95
2022-12-13T06:37:09.558Z,81.70
2022-12-13T06:40:36.508Z,81.56
2022-12-13T06:44:03.141Z,81.32
2022-12-13T06:47:31.447Z,81.45
2022-12-13T06:51:03.150Z,80.99
2022-12-13T06:54:29.962Z,80.92
2022-12-13T06:57:57.855Z,81.05
2022-12-13T07:01:25.112Z,80.60
2022-12-13T07:04:51.951Z,80.73
2022-12-13T07:08:22.161Z,81.03
2022-12-13T07:11:52.322Z,80.67
2022-12-13T07:15:19.756Z,80.79
2022-12-13T07:18:46.911Z,80.69
2022-12-13T07:22:13.517Z,80.64
2022-12-13T07:25:40.129Z,80.42
2022-12-13T07:29:07.331Z,80.37
2022-12-13T07:32:33.913Z,80.34
2022-12-13T07:36:07.102Z,80.05
2022-12-13T07:39:33.742Z,80.13
2022-12-13T07:43:00.299Z,80.18
2022-12-13T07:46:32.744Z,80.20
2022-12-13T07:50:01.672Z,80.15
2022-12-13T07:53:29.462Z,80.09
2022-12-13T07:57:04.359Z,79.96
2022-12-13T08:00:33.325Z,79.89
2022-12-13T08:03:59.998Z,79.67
2022-12-13T08:07:30.827Z,79.49
2022-12-13T08:11:01.627Z,79.36
2022-12-13T08:14:28.560Z,79.47
2022-12-13T08:17:57.814Z,78.71
2022-12-13T08:21:52.564Z,78.66
2022-12-13T08:25:12.150Z,78.59
2022-12-13T08:28:39.112Z,78.55
2022-12-13T08:32:07.933Z,78.35
2022-12-13T08:35:35.767Z,78.18
2022-12-13T08:39:04.614Z,77.83
2022-12-13T08:42:31.180Z,77.78
2022-12-13T08:46:01.322Z,77.89
2022-12-13T08:49:28.146Z,77.80
2022-12-13T08:52:55.037Z,78.27
2022-12-13T08:56:21.989Z,78.33
2022-12-13T08:59:48.598Z,78.24
2022-12-13T09:03:16.070Z,78.35
2022-12-13T09:06:44.406Z,77.92
2022-12-13T09:10:25.491Z,78.06
2022-12-13T09:13:54.752Z,78.53
2022-12-13T09:17:28.443Z,78.71
2022-12-13T09:21:11.534Z,78.80
2022-12-13T09:24:39.006Z,78.85
2022-12-13T09:28:06.756Z,78.63
2022-12-13T09:31:36.066Z,78.60
2022-12-13T09:35:02.771Z,78.25
2022-12-13T09:38:29.325Z,78.34
2022-12-13T09:42:01.202Z,78.13
2022-12-13T09:45:31.876Z,78.10
2022-12-13T09:49:03.062Z,77.49
2022-12-13T09:52:41.071Z,77.31
2022-12-13T09:56:12.995Z,77.11
2022-12-13T09:59:40.005Z,76.92
2022-12-13T10:03:14.105Z,76.27
2022-12-13T10:06:41.028Z,75.96
2022-12-13T10:10:10.635Z,76.58
2022-12-13T10:13:44.519Z,76.10
2022-12-13T10:17:21.425Z,76.23
2022-12-13T10:20:50.989Z,76.31
2022-12-13T10:24:31.541Z,75.38
2022-12-13T10:28:07.772Z,75.11
2022-12-13T10:31:43.466Z,75.23
2022-12-13T10:35:24.923Z,74.49
2022-12-13T10:38:51.569Z,74.82
2022-12-13T10:42:23.608Z,75.12
2022-12-13T10:46:01.124Z,75.03
2022-12-13T10:49:33.343Z,75.63
2022-12-13T10:53:01.809Z,75.29
2022-12-13T10:56:37.638Z,74.58
2022-12-13T11:00:17.983Z,75.05
2022-12-13T11:03:44.520Z,75.09
2022-12-13T11:07:26.772Z,74.59
2022-12-13T11:11:01.472Z,74.72
2022-12-13T11:14:32.782Z,74.24
2022-12-13T11:18:02.465Z,74.52
2022-12-13T11:21:32.799Z,74.61
2022-12-13T11:25:04.275Z,74.58
2022-12-13T11:28:59.138Z,74.02
2022-12-13T11:32:40.846Z,74.15
2022-12-13T11:36:18.744Z,74.40
2022-12-13T11:39:51.017Z,74.73
2022-12-13T11:43:26.418Z,74.56
2022-12-13T11:46:56.335Z,74.63
2022-12-13T11:50:34.115Z,74.64
2022-12-13T11:54:06.597Z,74.62
2022-12-13T11:57:44.730Z,74.31
2022-12-13T12:01:16.109Z,74.68
2022-12-13T12:04:53.614Z,74.33
2022-12-13T12:08:43.710Z,73.80
2022-12-13T12:12:22.183Z,73.51
2022-12-13T12:16:00.442Z,74.05
2022-12-13T12:19:31.697Z,73.72
2022-12-13T12:23:08.379Z,73.41
2022-12-13T12:26:49.805Z,73.24
2022-12-13T12:30:22.677Z,73.83
2022-12-13T12:34:00.642Z,73.54
2022-12-13T12:37:40.678Z,73.31
2022-12-13T12:41:21.082Z,73.40
2022-12-13T12:45:03.883Z,73.07
2022-12-13T12:49:01.788Z,73.28
2022-12-13T12:52:42.826Z,72.96
2022-12-13T12:56:22.524Z,73.35
2022-12-13T13:00:03.441Z,73.47
2022-12-13T13:03:35.796Z,73.42
2022-12-13T13:07:23.032Z,73.44
2022-12-13T13:10:53.298Z,73.47
2022-12-13T13:14:34.353Z,72.93
2022-12-13T13:18:01.768Z,72.93
2022-12-13T13:21:49.404Z,73.22
2022-12-13T13:25:30.354Z,73.12
2022-12-13T13:29:17.016Z,72.86
2022-12-13T13:32:56.925Z,73.16
2022-12-13T13:36:47.956Z,73.56
2022-12-13T13:40:31.305Z,73.59
2022-12-13T13:44:01.737Z,73.44
2022-12-13T13:47:40.091Z,73.40
2022-12-13T13:51:29.165Z,73.53
2022-12-13T13:55:24.646Z,73.52
2022-12-13T13:59:24.829Z,73.50
2022-12-13T14:03:33.772Z,73.73
2022-12-13T14:07:33.714Z,73.98
2022-12-13T14:11:25.875Z,74.01
2022-12-13T14:15:26.672Z,74.09
2022-12-13T14:19:23.048Z,74.03
2022-12-13T14:22:57.733Z,74.22
2022-12-13T14:26:56.899Z,74.15
2022-12-13T14:30:27.832Z,74.26
2022-12-13T14:33:58.086Z,74.34
2022-12-13T14:37:30.622Z,74.48
2022-12-13T14:40:59.946Z,74.63
2022-12-13T14:44:27.905Z,74.80
2022-12-13T14:47:57.477Z,74.83
2022-12-13T14:51:34.623Z,75.02
2022-12-13T14:55:04.557Z,75.06
2022-12-13T14:58:31.313Z,75.01
2022-12-13T15:02:02.547Z,75.11
2022-12-13T15:05:34.250Z,75.02
2022-12-13T15:09:01.795Z,75.30
2022-12-13T15:12:29.951Z,75.31
2022-12-13T15:16:00.228Z,75.53
2022-12-13T15:19:30.171Z,75.23
2022-12-13T15:23:16.092Z,75.25
2022-12-13T15:26:45.232Z,75.52
2022-12-13T15:30:17.349Z,75.44
2022-12-13T15:33:48.673Z,75.43
2022-12-13T15:37:29.188Z,75.54
2022-12-13T15:40:56.963Z,75.40
2022-12-13T15:44:28.143Z,75.62
2022-12-13T15:47:55.734Z,75.78
2022-12-13T15:51:28.663Z,75.78
2022-12-13T15:55:01.794Z,75.83
2022-12-13T15:58:32.735Z,75.97
2022-12-13T16:02:00.656Z,76.03
2022-12-13T16:05:31.494Z,75.97
2022-12-13T16:09:01.817Z,76.07
2022-12-13T16:12:34.483Z,75.90
2022-12-13T16:16:08.875Z,76.09
2022-12-13T16:19:36.482Z,76.29
2022-12-13T16:23:08.835Z,76.16
2022-12-13T16:26:37.110Z,76.34
2022-12-13T16:30:11.305Z,76.27
2022-12-13T16:33:37.975Z,76.28
2022-12-13T16:37:25.207Z,76.42
2022-12-13T16:40:55.097Z,76.29
2022-12-13T16:44:30.017Z,76.34
2022-12-13T16:47:56.669Z,76.32
2022-12-13T16:51:23.831Z,76.43
2022-12-13T16:54:52.877Z,76.50
2022-12-13T16:58:22.448Z,76.50
2022-12-13T17:01:47.921Z,76.41
2022-12-13T17:05:15.166Z,76.41
2022-12-13T17:08:41.730Z,76.70
2022-12-13T17:12:09.642Z,76.61
2022-12-13T17:15:36.834Z,76.75
2022-12-13T17:19:03.551Z,76.72
2022-12-13T17:22:30.447Z,76.60
2022-12-13T17:25:58.008Z,76.62
2022-12-13T17:29:26.238Z,76.67
2022-12-13T17:32:52.905Z,76.71
2022-12-13T17:36:19.682Z,76.79
2022-12-13T17:39:46.740Z,76.61
2022-12-13T17:43:22.986Z,76.76
2022-12-13T17:46:56.057Z,76.85
2022-12-13T17:50:23.655Z,76.86
2022-12-13T17:53:50.284Z,77.00
2022-12-13T17:57:17.190Z,76.98
2022-12-13T18:00:43.896Z,76.81
2022-12-13T18:04:12.602Z,76.80
2022-12-13T18:07:39.252Z,76.93
2022-12-13T18:14:54.349Z,76.98
2022-12-13T18:18:21.368Z,77.03
2022-12-13T18:21:48.312Z,77.00
2022-12-13T18:25:15.018Z,77.02
2022-12-13T18:28:42.513Z,77.03
2022-12-13T18:32:09.284Z,77.18
2022-12-13T18:35:35.954Z,77.25
2022-12-13T18:39:03.096Z,77.30
2022-12-13T18:42:31.389Z,77.54
2022-12-13T18:45:57.943Z,77.60
2022-12-13T18:49:25.043Z,77.73
2022-12-13T18:52:51.618Z,77.91
2022-12-13T18:56:19.598Z,78.15
2022-12-13T18:59:54.323Z,78.32
2022-12-13T19:03:22.230Z,78.19
2022-12-13T19:06:49.022Z,78.19
2022-12-13T19:10:15.706Z,78.52
2022-12-13T19:13:42.420Z,78.51
2022-12-13T19:17:09.014Z,78.65
2022-12-13T19:20:35.659Z,78.84
2022-12-13T19:24:02.510Z,79.08
2022-12-13T19:27:29.111Z,79.37
2022-12-13T19:30:56.085Z,79.39
2022-12-13T19:34:23.555Z,79.70
2022-12-13T19:37:50.289Z,79.77
2022-12-13T19:41:19.427Z,79.87
2022-12-13T19:44:45.988Z,80.02
2022-12-13T19:48:12.887Z,80.06
2022-12-13T19:51:40.202Z,80.25
2022-12-13T19:55:07.919Z,80.07
2022-12-13T19:58:34.970Z,80.13
2022-12-13T20:02:02.095Z,80.24
2022-12-13T20:05:29.460Z,80.35
2022-12-13T20:08:56.178Z,80.38
2022-12-13T20:12:23.427Z,80.29
2022-12-13T20:15:50.821Z,80.30
2022-12-13T20:19:18.298Z,80.42
2022-12-13T20:22:45.140Z,80.62
2022-12-13T20:26:18.080Z,80.52
2022-12-13T20:29:43.263Z,80.67
2022-12-13T20:33:15.018Z,80.89
2022-12-13T20:36:42.165Z,81.09
2022-12-13T20:40:11.378Z,81.23
2022-12-13T20:43:38.430Z,81.31
2022-12-13T20:47:05.446Z,81.40
2022-12-13T20:50:32.252Z,81.40
2022-12-13T20:53:59.422Z,81.64
2022-12-13T20:57:26.039Z,81.45
2022-12-13T21:00:53.224Z,81.54
2022-12-13T21:04:20.004Z,81.89
2022-12-13T21:08:04.463Z,82.10
2022-12-13T21:11:33.442Z,82.19
2022-12-13T21:15:00.155Z,82.23
2022-12-13T21:18:26.822Z,82.58
2022-12-13T21:21:54.757Z,82.47
2022-12-13T21:25:21.487Z,82.65
2022-12-13T21:28:48.100Z,82.88
2022-12-13T21:32:14.739Z,82.80
2022-12-13T21:35:41.479Z,82.90
2022-12-13T21:39:12.924Z,83.07
2022-12-13T21:42:39.532Z,83.10
2022-12-13T21:46:08.696Z,83.13
2022-12-13T21:49:35.322Z,83.33
2022-12-13T21:53:02.068Z,83.23
2022-12-13T21:56:53.912Z,83.45
2022-12-13T22:00:21.696Z,83.37
2022-12-13T22:03:49.071Z,83.59
2022-12-13T22:07:17.541Z,83.39
2022-12-13T22:10:58.366Z,83.30
2022-12-13T22:14:25.233Z,83.41
2022-12-13T22:17:51.996Z,83.55
2022-12-13T22:21:18.747Z,83.63
2022-12-13T22:24:52.669Z,84.07
2022-12-13T22:28:21.635Z,83.98
2022-12-13T22:31:49.369Z,84.53
2022-12-13T22:35:16.799Z,84.29
2022-12-13T22:38:43.862Z,84.47
2022-12-13T22:42:10.696Z,84.61
2022-12-13T22:45:37.654Z,84.65
2022-12-13T22:49:05.189Z,84.49
2022-12-13T22:52:33.909Z,84.22
2022-12-13T22:56:08.463Z,84.11
2022-12-13T22:59:35.153Z,84.32
2022-12-13T23:03:01.900Z,84.12
2022-12-13T23:06:30.302Z,84.45
2022-12-13T23:09:57.890Z,84.30
2022-12-13T23:13:24.850Z,84.42
2022-12-13T23:16:51.732Z,84.53
2022-12-13T23:20:18.984Z,84.34
2022-12-13T23:23:46.304Z,84.59
2022-12-13T23:27:13.031Z,84.49
2022-12-13T23:30:39.984Z,84.54
2022-12-13T23:34:07.300Z,84.68
2022-12-13T23:37:35.538Z,84.79
2022-12-13T23:41:08.169Z,84.61
2022-12-13T23:44:35.277Z,84.88
2022-12-13T23:48:01.802Z,84.74
2022-12-13T23:51:28.657Z,84.82
2022-12-13T23:54:55.849Z,84.88
2022-12-13T23:58:24.242Z,84.80
